createdAt,value
2019-01-26T00:01:25.874Z,13.65
2019-01-26T00:03:53.280Z,12.15
2019-01-26T00:06:20.759Z,10.72
2019-01-26T00:08:48.500Z,9.78
2019-01-26T00:11:15.951Z,8.63
2019-01-26T00:13:43.361Z,8.70
2019-01-26T00:16:10.769Z,8.50
2019-01-26T00:18:38.202Z,7.72
2019-01-26T00:21:05.623Z,7.40
2019-01-26T00:23:33.347Z,8.28
2019-01-26T00:26:00.759Z,8.00
2019-01-26T00:28:28.192Z,8.15
2019-01-26T00:30:55.929Z,8.00
2019-01-26T00:33:23.695Z,7.67
2019-01-26T00:35:51.102Z,8.00
2019-01-26T00:38:18.503Z,8.03
2019-01-26T00:40:46.022Z,8.48
2019-01-26T00:43:14.247Z,8.45
2019-01-26T00:45:41.663Z,9.98
2019-01-26T00:48:09.134Z,10.80
2019-01-26T00:50:36.556Z,9.30
2019-01-26T00:53:04.000Z,9.93
2019-01-26T00:55:31.441Z,9.60
2019-01-26T00:57:58.917Z,9.50
2019-01-26T01:00:26.432Z,9.60
2019-01-26T01:02:53.839Z,10.45
2019-01-26T01:05:21.356Z,9.95
2019-01-26T01:07:48.803Z,9.20
2019-01-26T01:10:17.587Z,10.05
2019-01-26T01:12:45.095Z,8.95
2019-01-26T01:15:14.044Z,9.53
2019-01-26T01:17:41.909Z,9.18
2019-01-26T01:20:10.337Z,9.45
2019-01-26T01:22:38.186Z,10.98
2019-01-26T01:25:07.067Z,9.48
2019-01-26T01:27:34.507Z,9.80
2019-01-26T01:30:02.011Z,11.45
2019-01-26T01:32:29.418Z,10.75
2019-01-26T01:34:56.851Z,10.30
2019-01-26T01:37:24.268Z,10.55
2019-01-26T01:39:51.706Z,10.60
2019-01-26T01:42:19.122Z,12.25
2019-01-26T01:44:46.537Z,10.23
2019-01-26T01:47:13.972Z,11.70
2019-01-26T01:49:41.387Z,10.75
2019-01-26T01:52:08.816Z,11.20
2019-01-26T01:54:36.572Z,11.38
2019-01-26T01:57:04.343Z,11.38
2019-01-26T01:59:31.757Z,11.80
2019-01-26T02:01:59.199Z,11.60
2019-01-26T02:04:26.609Z,11.90
2019-01-26T02:06:54.044Z,11.73
2019-01-26T02:09:21.934Z,13.05
2019-01-26T02:11:49.346Z,12.55
2019-01-26T02:14:16.770Z,13.22
2019-01-26T02:16:50.029Z,13.43
2019-01-26T02:19:13.341Z,14.45
2019-01-26T02:21:40.781Z,15.23
2019-01-26T02:24:08.194Z,14.78
2019-01-26T02:26:35.628Z,14.83
2019-01-26T02:29:03.341Z,16.50
2019-01-26T02:31:31.106Z,16.77
2019-01-26T02:33:58.545Z,16.93
2019-01-26T02:36:25.999Z,17.45
2019-01-26T02:38:53.424Z,17.05
2019-01-26T02:41:20.829Z,17.12
2019-01-26T02:43:48.610Z,17.10
2019-01-26T02:46:16.033Z,17.40
2019-01-26T02:48:43.710Z,17.70
2019-01-26T02:51:11.494Z,16.23
2019-01-26T02:53:38.904Z,17.55
2019-01-26T02:56:06.619Z,16.77
2019-01-26T02:58:34.028Z,15.45
2019-01-26T03:01:01.527Z,15.90
2019-01-26T03:03:28.968Z,17.15
2019-01-26T03:05:56.393Z,16.80
2019-01-26T03:08:23.831Z,17.15
2019-01-26T03:10:51.256Z,15.65
2019-01-26T03:13:19.022Z,15.78
2019-01-26T03:15:46.445Z,15.15
2019-01-26T03:18:14.652Z,14.03
2019-01-26T03:20:42.419Z,16.73
2019-01-26T03:23:09.834Z,15.90
2019-01-26T03:25:37.267Z,15.90
2019-01-26T03:28:04.739Z,15.18
2019-01-26T03:30:32.184Z,14.55
2019-01-26T03:32:59.918Z,13.75
2019-01-26T03:35:27.678Z,13.80
2019-01-26T03:37:55.162Z,15.05
2019-01-26T03:40:22.665Z,14.33
2019-01-26T03:42:50.177Z,14.85
2019-01-26T03:45:17.662Z,14.55
2019-01-26T03:47:45.595Z,14.45
2019-01-26T03:50:13.974Z,14.33
2019-01-26T03:52:41.453Z,13.53
2019-01-26T03:55:10.561Z,13.13
2019-01-26T03:57:38.044Z,13.55
2019-01-26T04:00:16.178Z,12.25
2019-01-26T04:02:43.960Z,13.15
2019-01-26T04:05:11.928Z,11.65
2019-01-26T04:07:39.345Z,13.03
2019-01-26T04:10:08.183Z,13.08
2019-01-26T04:12:35.937Z,13.05
2019-01-26T04:15:04.163Z,12.75
2019-01-26T16:10:48.925Z,13.15
2019-01-26T16:13:16.446Z,12.30
2019-01-26T16:15:43.952Z,12.65
2019-01-26T16:21:05.444Z,12.85
2019-01-26T16:23:32.924Z,12.25
2019-01-26T16:26:00.346Z,12.45
2019-01-26T16:28:27.854Z,13.53
2019-01-26T16:30:55.266Z,13.80
2019-01-26T16:33:23.496Z,14.33
2019-01-26T16:35:50.940Z,15.40
2019-01-26T16:38:18.354Z,15.50
2019-01-26T16:40:45.847Z,15.40
2019-01-26T16:43:13.277Z,17.17
2019-01-26T16:45:40.711Z,16.60
2019-01-26T16:51:02.336Z,17.25
2019-01-26T16:53:29.733Z,16.62
2019-01-26T16:55:57.226Z,16.82
2019-01-26T16:58:24.641Z,17.02
2019-01-26T17:00:52.149Z,16.57
2019-01-26T17:03:19.579Z,16.52
2019-01-26T17:05:47.066Z,16.00
2019-01-26T17:08:14.547Z,16.30
2019-01-26T17:10:41.985Z,15.90
2019-01-26T17:13:09.465Z,17.02
2019-01-26T17:15:36.903Z,17.42
2019-01-26T17:20:58.186Z,18.40
2019-01-26T17:23:25.644Z,18.02
2019-01-26T17:25:53.050Z,16.82
2019-01-26T17:28:20.457Z,18.40
2019-01-26T17:33:20.867Z,17.62
2019-01-26T17:35:48.276Z,19.07
2019-01-26T17:38:15.685Z,18.52
2019-01-26T17:40:43.130Z,18.40
2019-01-26T17:46:17.881Z,20.30
2019-01-26T17:48:45.446Z,20.88
2019-01-26T17:51:12.920Z,20.77
2019-01-26T17:53:40.310Z,21.52
2019-01-26T17:56:07.733Z,22.17
2019-01-26T17:58:35.174Z,23.75
2019-01-26T18:01:02.956Z,23.35
2019-01-26T18:11:36.172Z,22.87
2019-01-26T18:16:59.258Z,24.07
2019-01-26T18:25:02.297Z,20.95
2019-01-26T18:27:29.757Z,23.65
2019-01-26T18:29:57.174Z,21.23
2019-01-26T18:32:24.579Z,21.68
2019-01-26T18:34:52.079Z,21.50
2019-01-26T18:37:19.500Z,20.77
2019-01-26T18:39:46.901Z,22.90
2019-01-26T18:42:14.341Z,22.37
2019-01-26T18:44:41.763Z,22.52
2019-01-26T18:47:09.219Z,22.95
2019-01-26T18:52:23.133Z,23.55
2019-01-26T18:54:50.541Z,23.47
2019-01-26T19:08:46.454Z,20.75
2019-01-26T19:11:13.895Z,23.65
2019-01-26T19:13:41.307Z,26.25
2019-01-26T19:16:08.730Z,22.50
2019-01-26T19:21:08.771Z,23.20
2019-01-26T19:23:36.353Z,22.93
2019-01-26T19:28:52.309Z,20.88
2019-01-26T19:31:19.719Z,20.90
2019-01-26T19:33:47.175Z,22.48
2019-01-26T19:36:14.587Z,20.45
2019-01-26T19:38:41.989Z,18.32
2019-01-26T19:41:09.527Z,19.70
2019-01-26T19:43:36.928Z,18.98
2019-01-26T19:46:04.402Z,17.15
2019-01-26T19:48:31.840Z,16.97
2019-01-26T19:50:59.252Z,17.10
2019-01-26T19:53:26.686Z,18.00
2019-01-26T19:58:40.623Z,17.25
2019-01-26T20:01:08.126Z,15.90
2019-01-26T20:06:29.799Z,14.45
2019-01-26T20:08:57.209Z,15.35
2019-01-26T20:11:24.645Z,14.70
2019-01-26T20:13:52.133Z,15.98
2019-01-26T20:16:19.564Z,15.25
2019-01-26T20:18:46.977Z,14.15
2019-01-26T20:21:17.769Z,14.73
2019-01-26T20:23:43.534Z,15.65
2019-01-26T20:26:10.966Z,14.98
2019-01-26T20:28:38.383Z,13.50
2019-01-26T20:31:09.347Z,13.28
2019-01-26T20:33:41.307Z,12.82
2019-01-26T20:36:13.222Z,12.15
2019-01-26T20:41:37.377Z,12.28
2019-01-26T20:44:07.300Z,13.53
2019-01-26T20:46:35.962Z,12.30
2019-01-26T20:49:04.085Z,13.25
2019-01-26T20:51:31.999Z,12.73
2019-01-26T20:54:01.217Z,13.98
2019-01-26T21:07:11.292Z,13.80
2019-01-26T21:12:00.538Z,11.88
2019-01-26T21:17:16.630Z,11.85
2019-01-26T21:22:22.139Z,10.60
2019-01-26T21:25:09.780Z,9.70
2019-01-26T21:27:41.554Z,10.72
2019-01-26T21:33:31.269Z,10.28
2019-01-26T21:35:47.101Z,10.05
2019-01-26T21:38:33.061Z,9.93
2019-01-26T21:43:18.570Z,10.18
2019-01-26T21:46:06.640Z,10.15
2019-01-26T21:48:34.089Z,11.03
2019-01-26T21:51:01.674Z,9.68
2019-01-26T21:53:49.428Z,11.43
2019-01-26T21:56:18.225Z,10.55
2019-01-26T21:58:46.239Z,10.75
2019-01-26T22:01:14.585Z,9.43
2019-01-26T22:03:43.044Z,9.78
2019-01-26T22:31:08.150Z,8.13
2019-01-26T22:34:10.169Z,7.92
2019-01-26T22:39:20.503Z,7.58
2019-01-26T22:44:56.642Z,7.20
2019-01-26T22:47:24.069Z,7.10
2019-01-26T22:50:10.253Z,7.87
2019-01-26T22:52:23.450Z,10.10
2019-01-26T22:55:11.950Z,8.08
2019-01-26T22:57:39.918Z,8.10
2019-01-26T23:00:28.546Z,9.90
2019-01-26T23:02:55.973Z,8.40
2019-01-26T23:05:42.821Z,9.35
2019-01-26T23:08:11.809Z,8.50
2019-01-26T23:11:00.666Z,7.90
2019-01-26T23:16:35.679Z,7.83
2019-01-26T23:19:10.708Z,7.05
2019-01-26T23:21:57.442Z,6.78
2019-01-26T23:24:44.207Z,6.90
2019-01-26T23:30:25.542Z,7.97
2019-01-26T23:33:14.666Z,7.60
2019-01-26T23:35:42.822Z,7.70
2019-01-26T23:38:10.262Z,8.65
2019-01-26T23:40:39.416Z,8.08
2019-01-26T23:43:07.004Z,7.78
2019-01-26T23:45:49.535Z,7.92
2019-01-26T23:50:52.860Z,8.25
2019-01-26T23:53:20.882Z,7.30
2019-01-26T23:55:48.495Z,7.92
2019-01-26T23:58:37.731Z,7.25
